Amherst, New York
Current Conditions -  °F | °C
As of 6:54 AM on Thursday 23 Oct 2014 (Local Time) from KBUF Reporting Station
Clear Clear  
Wind Chill: 38°   Ceiling: Unl
Heat Index: 42°   Visibility: 10mi
Dew Point: 39°   Wind: 7mph
Humidity: 89%   Direction: 340°NNW
Pressure: 30.14"   Gusts: NA
Location:  43.0271°N, 78.7597°W
Report Text: KBUF 231054Z 34006KT 10SM CLR 06/04 A3014 RMK AO2 SLP213 T00560039
Loading
Personal Weather Stations






























Interactive Weather Map
Tropical Storm Tracking
New forecast layout! Learn more

10-Day Weather Forecast

Advertisements
Track Severe Weather on mobile